Time;durP1;ratioP1;P1;durP2;ratioP2;P2;SDS_P1;SDS_P2;PMS_P1;PMS_P2;Temp;Humidity;BMP_temperature;BMP_pressure;BME280_temperature;BME280_humidity;BME280_pressure;Samples;Min_cycle;Max_cycle;Signal;HPM_P1;HPM_P2
2021/08/19 00:01:45;;;;;;;2.40;2.00;;;;;;;15.83;62.16;99712.21;154604;1093;103128;-77
2021/08/19 00:04:49;;;;;;;2.73;2.20;;;;;;;15.90;62.27;99713.08;154598;1098;103208;-77
2021/08/19 00:07:51;;;;;;;3.50;2.40;;;;;;;15.95;62.47;99707.91;154614;1098;103189;-79
2021/08/19 00:10:54;;;;;;;3.70;2.23;;;;;;;16.00;62.43;99715.39;154556;1093;103107;-80
2021/08/19 00:13:57;;;;;;;4.13;2.47;;;;;;;16.02;62.57;99716.02;154563;1093;103518;-80
2021/08/19 00:17:01;;;;;;;3.10;2.30;;;;;;;16.04;62.77;99709.39;154614;1094;103220;-81
2021/08/19 00:20:05;;;;;;;2.95;2.25;;;;;;;16.05;62.49;99702.98;154694;1093;103189;-82
2021/08/19 00:23:08;;;;;;;4.68;2.70;;;;;;;16.03;62.90;99702.36;154731;1098;103199;-79
2021/08/19 00:26:11;;;;;;;5.17;2.20;;;;;;;16.01;62.96;99701.73;154869;1093;103152;-79
2021/08/19 00:29:14;;;;;;;3.33;2.20;;;;;;;16.01;62.96;99699.05;154687;1098;103221;-78
2021/08/19 00:32:16;;;;;;;3.10;2.33;;;;;;;16.03;63.39;99696.98;154634;1098;103128;-78
2021/08/19 00:35:19;;;;;;;2.80;1.90;;;;;;;16.06;63.35;99695.73;154599;1098;103100;-80
2021/08/19 00:38:22;;;;;;;2.60;2.00;;;;;;;16.10;63.44;99692.42;154578;1098;103196;-79
2021/08/19 00:41:25;;;;;;;3.53;2.00;;;;;;;16.12;63.56;99688.72;154669;1098;103209;-80
2021/08/19 00:44:28;;;;;;;3.70;2.17;;;;;;;16.13;63.20;99691.21;154655;1098;103260;-83
2021/08/19 00:47:31;;;;;;;5.60;2.27;;;;;;;16.14;63.41;99695.55;154795;1093;103132;-77
2021/08/19 00:50:34;;;;;;;3.77;2.10;;;;;;;16.12;63.61;99692.23;154656;1098;103193;-78
2021/08/19 00:53:37;;;;;;;4.20;2.30;;;;;;;16.09;63.26;99693.47;154717;1093;104756;-78
2021/08/19 00:56:40;;;;;;;3.03;2.17;;;;;;;16.07;63.61;99697.38;155235;1093;103209;-79
2021/08/19 00:59:43;;;;;;;2.77;2.10;;;;;;;16.03;63.40;99690.75;154906;1093;103553;-79
2021/08/19 01:02:47;;;;;;;3.40;1.83;;;;;;;16.00;63.82;99697.38;154605;1093;103193;-78
2021/08/19 01:05:51;;;;;;;2.23;1.83;;;;;;;15.99;63.77;99694.88;154608;1093;103134;-79
2021/08/19 01:08:54;;;;;;;3.40;2.10;;;;;;;15.97;63.85;99703.14;154635;1098;103125;-77
2021/08/19 01:11:57;;;;;;;4.00;2.05;;;;;;;15.96;64.11;99701.50;154814;1093;103240;-78
2021/08/19 01:15:00;;;;;;;2.93;1.90;;;;;;;15.93;63.92;99699.20;154632;1093;103235;-80
2021/08/19 01:18:03;;;;;;;3.10;2.20;;;;;;;15.89;63.93;99700.64;154592;1098;103192;-79
2021/08/19 01:21:07;;;;;;;2.50;2.00;;;;;;;15.83;64.00;99704.14;154604;1093;103195;-79
2021/08/19 01:24:09;;;;;;;2.50;1.80;;;;;;;15.79;64.35;99705.58;154625;1093;103562;-80
2021/08/19 01:27:14;;;;;;;3.27;2.40;;;;;;;15.72;64.31;99705.50;154601;1098;103572;-78
2021/08/19 01:30:16;;;;;;;3.45;2.10;;;;;;;15.70;64.48;99702.19;154816;1098;103291;-78
2021/08/19 01:33:22;;;;;;;3.03;2.10;;;;;;;15.69;64.43;99712.13;154578;1093;103524;-80
2021/08/19 01:36:24;;;;;;;3.38;1.90;;;;;;;15.66;64.23;99706.30;154559;1098;103186;-79
2021/08/19 01:39:28;;;;;;;3.27;2.17;;;;;;;15.64;65.04;99702.98;154564;1098;103196;-80
2021/08/19 01:42:30;;;;;;;2.15;1.93;;;;;;;15.58;64.83;99696.55;154612;1098;103113;-82
2021/08/19 01:45:33;;;;;;;2.33;2.10;;;;;;;15.52;64.71;99700.04;154530;1098;103198;-81
2021/08/19 01:48:37;;;;;;;2.90;2.20;;;;;;;15.45;64.45;99689.27;154613;1093;103560;-79
2021/08/19 01:51:40;;;;;;;2.73;2.17;;;;;;;15.38;64.99;99701.83;154664;1094;103193;-81
2021/08/19 01:54:42;;;;;;;2.90;2.40;;;;;;;15.31;64.95;99703.64;154678;1098;103188;-80
2021/08/19 01:57:45;;;;;;;2.87;2.00;;;;;;;15.27;65.17;99702.38;154615;1098;103110;-80
2021/08/19 02:00:49;;;;;;;2.40;1.73;;;;;;;15.28;65.48;99704.02;154568;1093;103369;-80
2021/08/19 02:03:53;;;;;;;3.53;2.10;;;;;;;15.28;65.40;99702.19;154597;1093;103190;-77
2021/08/19 02:06:56;;;;;;;4.63;2.30;;;;;;;15.33;65.20;99708.83;154596;1098;103136;-75
2021/08/19 02:09:59;;;;;;;2.95;2.10;;;;;;;15.37;65.40;99705.53;154591;1098;103103;-76
2021/08/19 02:13:01;;;;;;;5.37;2.47;;;;;;;15.39;65.36;99697.27;154563;1098;103142;-75
2021/08/19 02:16:05;;;;;;;3.73;2.20;;;;;;;15.37;65.63;99696.64;154554;1098;103115;-78
2021/08/19 02:19:08;;;;;;;4.67;2.60;;;;;;;15.33;65.24;99695.38;154648;1093;103104;-77
2021/08/19 02:22:11;;;;;;;3.25;2.20;;;;;;;15.25;66.04;99691.82;154580;1093;103192;-77
2021/08/19 02:25:13;;;;;;;2.60;1.83;;;;;;;15.16;65.57;99695.68;154533;1093;103122;-77
2021/08/19 02:28:16;;;;;;;3.00;2.20;;;;;;;15.17;66.05;99707.28;154560;1098;103184;-76
2021/08/19 02:31:19;;;;;;;4.40;2.00;;;;;;;15.14;66.03;99708.48;154595;1093;103211;-75
2021/08/19 02:34:22;;;;;;;2.70;2.27;;;;;;;15.12;65.80;99711.36;154615;1093;103192;-75
2021/08/19 02:37:24;;;;;;;3.10;2.20;;;;;;;15.11;66.16;99703.52;154631;1098;103509;-74
2021/08/19 02:40:29;;;;;;;3.25;2.30;;;;;;;15.11;66.05;99704.34;154578;1098;103208;-77
2021/08/19 02:43:33;;;;;;;3.20;2.60;;;;;;;15.10;66.30;99704.53;154583;1098;103480;-76
2021/08/19 02:46:35;;;;;;;7.00;2.70;;;;;;;15.07;66.18;99707.63;154654;1098;103236;-77
2021/08/19 02:49:38;;;;;;;3.80;2.07;;;;;;;15.04;66.33;99711.52;154548;1093;103182;-76
2021/08/19 02:52:42;;;;;;;2.70;2.05;;;;;;;15.07;66.49;99702.26;154687;1098;103093;-75
2021/08/19 02:55:45;;;;;;;4.20;2.30;;;;;;;15.08;66.62;99714.65;154591;1098;103120;-75
2021/08/19 02:58:47;;;;;;;3.27;2.50;;;;;;;15.09;66.65;99703.71;154549;1098;103124;-73
2021/08/19 03:01:50;;;;;;;2.90;2.47;;;;;;;15.07;66.57;99707.63;154578;1098;103185;-72
2021/08/19 03:04:53;;;;;;;3.90;2.55;;;;;;;15.05;66.51;99709.66;154617;1098;103260;-74
2021/08/19 03:07:56;;;;;;;3.20;2.40;;;;;;;15.05;66.58;99705.14;154982;1098;104697;-75
2021/08/19 03:10:58;;;;;;;6.13;2.70;;;;;;;15.03;67.02;99701.81;154654;1098;103145;-77
2021/08/19 03:14:02;;;;;;;3.23;2.20;;;;;;;15.01;66.91;99708.39;154723;1098;103153;-76
2021/08/19 03:17:07;;;;;;;2.77;2.20;;;;;;;15.01;67.01;99705.70;154749;1098;103186;-76
2021/08/19 03:20:12;;;;;;;2.90;2.37;;;;;;;15.01;66.78;99705.70;155076;1093;103590;-75
2021/08/19 03:23:15;;;;;;;2.93;2.38;;;;;;;15.00;67.26;99715.63;154699;1093;103288;-75
2021/08/19 03:26:18;;;;;;;4.03;2.30;;;;;;;14.99;67.00;99711.30;154670;1093;103187;-75
2021/08/19 03:29:21;;;;;;;3.87;2.60;;;;;;;14.97;66.83;99712.50;154636;1093;103145;-75
2021/08/19 03:32:24;;;;;;;3.50;2.40;;;;;;;14.93;67.06;99712.05;154686;1093;103189;-75
2021/08/19 03:35:26;;;;;;;3.20;2.20;;;;;;;14.91;67.51;99708.73;154571;1093;103211;-75
2021/08/19 03:38:29;;;;;;;4.07;2.50;;;;;;;14.89;67.58;99705.41;154625;1098;103623;-77
2021/08/19 03:41:32;;;;;;;4.00;2.20;;;;;;;14.89;67.39;99700.86;154564;1098;103179;-76
2021/08/19 03:44:35;;;;;;;3.23;2.50;;;;;;;14.92;67.67;99705.03;154582;1093;103189;-76
2021/08/19 03:47:38;;;;;;;2.63;2.20;;;;;;;14.94;67.66;99704.84;154567;1098;103173;-75
2021/08/19 03:50:41;;;;;;;3.77;2.40;;;;;;;14.96;67.76;99706.30;154787;1093;103675;-76
2021/08/19 03:53:44;;;;;;;3.23;2.50;;;;;;;14.98;67.69;99716.86;154598;1093;103114;-74
2021/08/19 03:56:46;;;;;;;3.30;2.50;;;;;;;15.01;67.84;99711.93;154552;1098;103272;-75
2021/08/19 03:59:49;;;;;;;3.47;2.60;;;;;;;15.07;67.75;99710.32;154590;1093;103122;-75
2021/08/19 04:02:52;;;;;;;2.60;2.03;;;;;;;15.11;67.81;99703.52;154563;1093;103128;-75
2021/08/19 04:05:54;;;;;;;2.80;1.93;;;;;;;15.21;67.92;99706.69;154572;1098;103211;-75
2021/08/19 04:08:57;;;;;;;3.73;2.00;;;;;;;15.31;67.76;99703.64;154557;1098;103145;-76
2021/08/19 04:12:01;;;;;;;2.97;2.23;;;;;;;15.41;67.87;99701.41;154147;1098;103554;-77
2021/08/19 04:15:05;;;;;;;3.40;2.30;;;;;;;15.47;67.77;99703.34;154457;1093;103103;-75
2021/08/19 04:18:10;;;;;;;5.30;2.50;;;;;;;15.51;67.51;99704.59;154329;1093;103126;-76
2021/08/19 04:21:13;;;;;;;3.25;2.20;;;;;;;15.52;67.95;99697.35;154501;1098;103193;-76
2021/08/19 04:24:16;;;;;;;2.80;2.40;;;;;;;15.53;67.66;99701.71;154609;1093;103189;-75
2021/08/19 04:27:18;;;;;;;4.43;2.67;;;;;;;15.54;67.96;99700.67;154294;1098;103285;-75
2021/08/19 04:30:22;;;;;;;3.43;2.03;;;;;;;15.59;68.09;99690.16;154517;1098;103154;-76
2021/08/19 04:33:28;;;;;;;2.37;1.97;;;;;;;15.69;67.89;99695.98;154310;1098;103181;-75
2021/08/19 04:36:31;;;;;;;3.07;2.60;;;;;;;15.85;68.15;99696.70;154548;1098;103189;-76
2021/08/19 04:39:34;;;;;;;6.97;3.03;;;;;;;16.06;67.67;99691.17;154548;1098;103137;-77
2021/08/19 04:42:36;;;;;;;3.60;3.20;;;;;;;16.32;67.96;99688.74;154755;1098;103550;-77
2021/08/19 04:45:39;;;;;;;4.73;2.80;;;;;;;16.53;67.50;99690.44;154408;1098;103193;-77
2021/08/19 04:48:42;;;;;;;2.97;2.67;;;;;;;16.76;67.64;99690.84;154434;1098;103189;-76
2021/08/19 04:51:45;;;;;;;4.27;3.10;;;;;;;17.02;67.41;99694.63;154488;1098;103211;-76
2021/08/19 04:54:48;;;;;;;2.70;2.17;;;;;;;17.29;67.39;99694.58;154593;1093;103119;-75
2021/08/19 04:57:51;;;;;;;6.20;2.70;;;;;;;17.48;67.23;99693.70;154570;1098;103199;-76
2021/08/19 05:00:54;;;;;;;2.43;2.23;;;;;;;17.58;67.13;99694.08;154631;1093;103212;-76
2021/08/19 05:03:58;;;;;;;2.75;2.30;;;;;;;17.68;66.99;99688.22;154673;1093;103220;-75
2021/08/19 05:07:01;;;;;;;3.17;2.33;;;;;;;17.81;67.15;99687.35;154585;1093;103211;-75
2021/08/19 05:10:06;;;;;;;3.00;2.70;;;;;;;17.90;66.68;99690.65;154583;1098;103132;-76
2021/08/19 05:13:09;;;;;;;2.33;2.13;;;;;;;17.91;66.83;99687.74;154652;1098;103189;-76
2021/08/19 05:16:11;;;;;;;3.07;2.30;;;;;;;17.89;66.69;99689.83;154597;1098;103254;-77
2021/08/19 05:19:14;;;;;;;2.70;2.10;;;;;;;17.87;66.58;99691.92;154619;1098;103094;-77
2021/08/19 05:22:17;;;;;;;3.58;2.45;;;;;;;17.85;66.69;99692.13;154593;1093;103474;-75
2021/08/19 05:25:20;;;;;;;3.55;2.90;;;;;;;17.88;66.56;99692.73;154585;1093;103145;-76
2021/08/19 05:28:22;;;;;;;3.10;2.30;;;;;;;17.91;66.13;99698.54;154628;1098;103100;-76
2021/08/19 05:31:25;;;;;;;3.38;2.73;;;;;;;17.99;66.66;99700.16;154649;1093;103259;-76
2021/08/19 05:34:28;;;;;;;3.50;2.30;;;;;;;18.08;66.54;99698.05;154649;1098;104610;-76
2021/08/19 05:37:31;;;;;;;3.83;2.30;;;;;;;18.14;66.40;99695.30;154629;1093;103157;-76
2021/08/19 05:40:34;;;;;;;3.08;2.45;;;;;;;18.19;66.44;99694.67;154565;1093;103132;-77
2021/08/19 05:43:37;;;;;;;6.87;2.33;;;;;;;18.29;66.37;99694.20;154553;1093;103125;-77
2021/08/19 05:46:39;;;;;;;3.07;2.63;;;;;;;18.37;66.24;99688.53;154579;1093;103243;-76
2021/08/19 05:49:44;;;;;;;3.27;2.20;;;;;;;18.40;66.01;99691.63;154559;1098;103228;-75
2021/08/19 05:52:47;;;;;;;3.10;2.25;;;;;;;18.45;66.07;99694.48;154626;1094;103137;-76
2021/08/19 05:55:50;;;;;;;2.80;2.30;;;;;;;18.49;65.93;99700.28;154323;1098;103187;-75
2021/08/19 05:58:52;;;;;;;3.10;2.30;;;;;;;18.55;65.81;99696.73;153916;1093;103200;-76
2021/08/19 06:01:55;;;;;;;2.40;2.17;;;;;;;18.58;65.73;99698.16;153929;1101;103195;-76
2021/08/19 06:04:58;;;;;;;3.47;2.20;;;;;;;18.60;65.76;99696.05;153935;1101;103285;-75
2021/08/19 06:08:01;;;;;;;4.23;2.60;;;;;;;18.72;65.66;99688.06;153960;1094;103115;-75
2021/08/19 06:11:04;;;;;;;2.60;2.40;;;;;;;18.81;65.43;99693.00;153947;1101;103196;-74
2021/08/19 06:14:07;;;;;;;3.53;2.20;;;;;;;18.92;65.24;99693.32;153968;1101;103228;-75
2021/08/19 06:17:10;;;;;;;3.17;2.30;;;;;;;19.01;64.86;99692.00;153965;1101;103093;-75
2021/08/19 06:20:13;;;;;;;3.63;2.60;;;;;;;19.11;65.31;99688.78;154058;1093;103193;-76
2021/08/19 06:23:16;;;;;;;2.65;2.40;;;;;;;19.26;65.04;99686.55;153993;1101;103260;-75
2021/08/19 06:26:19;;;;;;;3.67;2.53;;;;;;;19.34;64.78;99688.98;153963;1093;103184;-75
2021/08/19 06:29:22;;;;;;;3.90;2.40;;;;;;;19.38;64.33;99689.33;153979;1093;103188;-75
2021/08/19 06:32:24;;;;;;;3.00;2.47;;;;;;;19.37;64.46;99690.40;153975;1093;103228;-76
2021/08/19 06:35:27;;;;;;;3.00;2.70;;;;;;;19.38;64.25;99689.33;153968;1093;103202;-76
2021/08/19 06:38:30;;;;;;;4.43;2.38;;;;;;;19.47;64.20;99676.34;153986;1101;103228;-76
2021/08/19 06:41:33;;;;;;;6.00;2.40;;;;;;;19.58;64.28;99678.30;153985;1093;103554;-76
2021/08/19 06:44:36;;;;;;;3.97;3.03;;;;;;;19.74;64.24;99674.17;153957;1094;103243;-76
2021/08/19 06:47:39;;;;;;;2.60;2.20;;;;;;;19.89;64.15;99679.20;153934;1101;103119;-76
2021/08/19 06:50:41;;;;;;;2.43;2.23;;;;;;;20.08;63.48;99680.81;154050;1101;103196;-76
2021/08/19 06:53:44;;;;;;;5.48;2.83;;;;;;;20.27;63.34;99683.48;153968;1101;103191;-76
2021/08/19 06:56:47;;;;;;;2.75;2.45;;;;;;;20.42;63.70;99685.73;153980;1093;103179;-76
2021/08/19 06:59:50;;;;;;;3.13;2.40;;;;;;;20.63;63.11;99690.67;153997;1093;103569;-76
2021/08/19 07:02:53;;;;;;;2.97;2.60;;;;;;;20.78;62.99;99682.92;153949;1093;103211;-76
2021/08/19 07:05:55;;;;;;;3.45;2.50;;;;;;;20.93;62.52;99681.62;153934;1101;103187;-76
2021/08/19 07:08:58;;;;;;;2.87;2.40;;;;;;;20.99;62.36;99686.91;153990;1101;103245;-76
2021/08/19 07:12:01;;;;;;;3.30;2.60;;;;;;;20.96;62.18;99689.30;153960;1101;103103;-75
2021/08/19 07:15:05;;;;;;;2.60;2.40;;;;;;;20.85;61.84;99685.50;154020;1093;103237;-76
2021/08/19 07:18:09;;;;;;;3.77;2.90;;;;;;;20.78;62.22;99679.36;154038;1094;103117;-76
2021/08/19 07:21:11;;;;;;;2.93;2.60;;;;;;;20.74;62.24;99684.42;153965;1101;103112;-76
2021/08/19 07:24:14;;;;;;;3.47;2.47;;;;;;;20.79;62.36;99683.73;153935;1093;103115;-76
2021/08/19 07:27:17;;;;;;;3.30;2.60;;;;;;;20.85;62.17;99680.08;154006;1101;103154;-76
2021/08/19 07:30:20;;;;;;;4.17;2.60;;;;;;;20.96;62.05;99675.73;153984;1093;103262;-76
2021/08/19 07:33:23;;;;;;;2.70;2.50;;;;;;;21.13;61.89;99682.09;154066;1101;103155;-74
2021/08/19 07:36:26;;;;;;;3.30;2.60;;;;;;;21.31;61.60;99681.13;154004;1101;103123;-76
2021/08/19 07:39:28;;;;;;;3.17;2.87;;;;;;;21.45;60.85;99672.77;154002;1101;103214;-76
2021/08/19 07:42:31;;;;;;;3.20;2.90;;;;;;;21.70;61.17;99684.16;154058;1101;103189;-76
2021/08/19 07:45:34;;;;;;;12.30;2.83;;;;;;;21.91;60.82;99673.70;154059;1101;103244;-75
2021/08/19 07:48:37;;;;;;;4.48;2.65;;;;;;;22.11;60.75;99684.13;153959;1101;103273;-76
2021/08/19 07:51:40;;;;;;;3.07;2.60;;;;;;;22.24;60.69;99683.02;153981;1101;103129;-75
2021/08/19 07:54:42;;;;;;;3.35;2.80;;;;;;;22.26;60.22;99694.49;154106;1093;103213;-76
2021/08/19 07:57:48;;;;;;;4.20;3.10;;;;;;;22.21;59.44;99695.20;154301;1093;103119;-76
2021/08/19 08:00:51;;;;;;;3.60;2.83;;;;;;;22.13;59.89;99682.83;154580;1098;104634;-76
2021/08/19 08:03:53;;;;;;;2.97;2.67;;;;;;;22.17;60.00;99685.86;154592;1093;103272;-76
2021/08/19 08:06:56;;;;;;;5.40;3.10;;;;;;;22.19;59.97;99691.06;154582;1098;103190;-76
2021/08/19 08:10:00;;;;;;;4.47;3.17;;;;;;;22.17;60.05;99696.73;154577;1093;103146;-76
2021/08/19 08:13:03;;;;;;;4.20;2.70;;;;;;;22.06;59.87;99692.20;154582;1098;103126;-76
2021/08/19 08:16:06;;;;;;;3.57;2.57;;;;;;;22.01;59.86;99689.38;154590;1098;103187;-76
2021/08/19 08:19:08;;;;;;;2.90;2.57;;;;;;;22.05;60.01;99695.97;154517;1098;103257;-76
2021/08/19 08:22:11;;;;;;;4.73;2.30;;;;;;;22.17;59.80;99685.86;154597;1093;103195;-76
2021/08/19 08:25:14;;;;;;;3.40;2.65;;;;;;;22.37;59.75;99693.61;154522;1098;103120;-76
2021/08/19 08:28:20;;;;;;;6.33;2.70;;;;;;;22.63;59.21;99703.02;154589;1093;103193;-76
2021/08/19 08:31:23;;;;;;;2.88;2.53;;;;;;;22.74;58.63;99690.42;154602;1098;103683;-76
2021/08/19 08:34:25;;;;;;;3.23;2.80;;;;;;;22.65;58.59;99698.19;154415;1098;103231;-76
2021/08/19 08:37:29;;;;;;;5.23;2.80;;;;;;;22.69;57.68;99707.50;154108;1098;103121;-76
2021/08/19 08:40:35;;;;;;;6.87;2.87;;;;;;;22.72;58.33;99706.98;154003;1094;103111;-76
2021/08/19 08:43:40;;;;;;;2.88;2.13;;;;;;;22.78;58.11;99701.64;154014;1098;103498;-76
2021/08/19 08:46:46;;;;;;;3.43;2.63;;;;;;;22.92;58.46;99705.66;154227;1093;103100;-77
2021/08/19 08:49:49;;;;;;;2.57;2.33;;;;;;;23.02;58.10;99703.13;154199;1093;103174;-76
2021/08/19 08:52:52;;;;;;;3.90;2.90;;;;;;;23.03;57.61;99699.34;154002;1093;103126;-76
2021/08/19 08:55:55;;;;;;;4.00;2.43;;;;;;;23.09;57.70;99711.95;153988;1101;103265;-76
2021/08/19 08:58:58;;;;;;;3.10;2.73;;;;;;;23.17;57.31;99704.44;153928;1101;103125;-76
2021/08/19 09:02:01;;;;;;;5.60;2.63;;;;;;;23.25;57.34;99701.28;154022;1093;103123;-75
2021/08/19 09:05:19;;;;;;;2.83;2.20;;;;;;;23.31;56.74;99701.13;153968;1093;103264;-76
2021/08/19 09:08:25;;;;;;;2.83;2.55;;;;;;;23.25;56.50;99701.28;154169;1100;103190;-76
2021/08/19 09:11:40;;;;;;;3.58;2.55;;;;;;;23.34;56.86;99694.34;154339;1098;103160;-76
2021/08/19 09:14:46;;;;;;;2.60;2.40;;;;;;;23.44;56.67;99704.55;153950;1101;103116;-76
2021/08/19 09:17:52;;;;;;;2.88;2.30;;;;;;;23.46;56.81;99697.80;154083;1099;103192;-76
2021/08/19 09:20:54;;;;;;;3.20;2.30;;;;;;;23.35;56.66;99701.45;154019;1101;103193;-76
2021/08/19 09:24:13;;;;;;;3.23;2.67;;;;;;;23.22;56.60;99697.17;154064;1094;103151;-76
2021/08/19 09:27:17;;;;;;;5.98;2.58;;;;;;;23.22;56.47;99694.45;154020;1093;103124;-76
2021/08/19 09:30:28;;;;;;;2.47;2.27;;;;;;;23.21;56.83;99694.70;154066;1094;103101;-76
2021/08/19 09:33:31;;;;;;;;;;;;;;;23.20;56.84;99699.33;153998;1101;103110;-75
2021/08/19 09:36:36;;;;;;;3.40;2.35;;;;;;;23.24;56.73;99695.03;154020;1093;103304;-75
2021/08/19 09:39:42;;;;;;;3.50;2.50;;;;;;;23.42;56.21;99701.26;153974;1101;103154;-76
2021/08/19 09:42:45;;;;;;;3.18;2.50;;;;;;;23.60;56.22;99700.16;153923;1101;103183;-76
2021/08/19 09:45:48;;;;;;;2.97;2.37;;;;;;;23.62;56.27;99698.00;153909;1101;103125;-75
2021/08/19 09:48:50;;;;;;;3.77;2.50;;;;;;;23.55;55.90;99700.89;153985;1093;103151;-75
2021/08/19 09:52:07;;;;;;;3.65;2.50;;;;;;;23.45;55.78;99706.21;153931;1101;103298;-76
2021/08/19 09:55:25;;;;;;;3.97;2.43;;;;;;;23.35;56.24;99706.90;154184;1098;103191;-76
2021/08/19 09:58:33;;;;;;;3.00;2.70;;;;;;;23.24;55.75;99700.47;153998;1101;103187;-76
2021/08/19 10:01:36;;;;;;;4.13;2.53;;;;;;;23.12;55.42;99699.76;154022;1101;103136;-75
2021/08/19 10:04:39;;;;;;;5.00;3.03;;;;;;;22.96;55.86;99698.68;153990;1101;103208;-75
2021/08/19 10:07:42;;;;;;;3.70;2.70;;;;;;;22.98;56.12;99690.24;153991;1101;103281;-75
2021/08/19 10:10:45;;;;;;;3.10;2.80;;;;;;;23.00;55.64;99699.83;153955;1100;103140;-76
2021/08/19 10:13:48;;;;;;;3.43;2.83;;;;;;;23.08;55.74;99704.88;154561;1098;103575;-77
2021/08/19 10:16:52;;;;;;;3.63;2.67;;;;;;;23.12;55.15;99703.30;154608;1098;103189;-76
2021/08/19 10:19:55;;;;;;;3.35;2.50;;;;;;;23.32;55.68;99702.76;154577;1093;103138;-76
2021/08/19 10:23:00;;;;;;;3.25;2.80;;;;;;;23.55;54.84;99710.97;154583;1093;103210;-76
2021/08/19 10:26:06;;;;;;;3.10;2.80;;;;;;;23.68;55.46;99710.59;154624;1098;103585;-76
2021/08/19 10:29:08;;;;;;;2.83;2.63;;;;;;;23.75;54.81;99704.95;154125;1093;103201;-76
2021/08/19 10:32:23;;;;;;;3.10;2.80;;;;;;;23.88;55.19;99702.72;154332;1093;103179;-76
2021/08/19 10:35:27;;;;;;;3.58;2.68;;;;;;;23.92;55.08;99711.18;154332;1098;103226;-76
2021/08/19 10:38:30;;;;;;;3.33;2.80;;;;;;;23.95;54.40;99715.32;154326;1098;103554;-76
2021/08/19 10:41:42;;;;;;;3.67;2.87;;;;;;;23.95;54.40;99712.59;154178;1093;103238;-77
2021/08/19 10:44:45;;;;;;;4.43;2.80;;;;;;;23.85;54.39;99708.66;154015;1093;103135;-77
2021/08/19 10:47:48;;;;;;;3.85;2.90;;;;;;;23.86;54.75;99713.02;153936;1101;103192;-76
2021/08/19 10:50:51;;;;;;;3.30;2.80;;;;;;;23.83;53.91;99702.65;154309;1093;103175;-76
2021/08/19 10:53:54;;;;;;;3.10;2.77;;;;;;;23.78;53.81;99709.90;154097;1098;103211;-76
2021/08/19 10:56:57;;;;;;;3.85;3.00;;;;;;;23.71;53.81;99705.47;153988;1101;103083;-76
2021/08/19 11:00:01;;;;;;;3.17;2.80;;;;;;;23.63;53.61;99707.80;153926;1101;103570;-76
2021/08/19 11:03:03;;;;;;;4.80;2.73;;;;;;;23.71;54.17;99718.25;153996;1101;103141;-76
2021/08/19 11:06:10;;;;;;;3.95;3.50;;;;;;;23.83;53.18;99699.92;153998;1101;103142;-76
2021/08/19 11:09:13;;;;;;;3.88;3.20;;;;;;;23.76;52.80;99706.61;154082;1101;103289;-76
2021/08/19 11:12:26;;;;;;;3.58;3.00;;;;;;;23.55;53.02;99700.89;153983;1093;103197;-76
2021/08/19 11:15:29;;;;;;;3.50;3.20;;;;;;;23.32;53.41;99708.20;153955;1094;103165;-76
2021/08/19 11:18:34;;;;;;;4.47;3.50;;;;;;;23.10;53.42;99710.08;153968;1101;103190;-76
2021/08/19 11:21:37;;;;;;;3.40;3.07;;;;;;;22.84;53.16;99722.41;154010;1101;103096;-76
2021/08/19 11:24:40;;;;;;;4.20;3.27;;;;;;;22.61;53.13;99726.91;153973;1093;103275;-76
2021/08/19 11:27:42;;;;;;;4.97;3.60;;;;;;;22.45;53.64;99719.57;154000;1101;103145;-76
2021/08/19 11:30:47;;;;;;;4.47;3.50;;;;;;;22.38;53.53;99729.77;154574;1098;103135;-77
2021/08/19 11:33:57;;;;;;;4.60;3.00;;;;;;;22.26;53.06;99725.20;154548;1098;103145;-76
2021/08/19 11:37:00;;;;;;;3.35;3.00;;;;;;;22.16;53.33;99727.70;154546;1098;103130;-76
2021/08/19 11:40:05;;;;;;;4.90;3.33;;;;;;;22.17;53.48;99726.63;154577;1093;103308;-76
2021/08/19 11:43:23;;;;;;;3.98;3.00;;;;;;;22.21;53.14;99730.53;154472;1098;103193;-76
2021/08/19 11:46:27;;;;;;;5.83;2.98;;;;;;;22.34;53.33;99730.27;153981;1101;103131;-76
2021/08/19 11:49:31;;;;;;;3.17;2.80;;;;;;;22.49;53.23;99737.04;153961;1101;103122;-76
2021/08/19 11:52:33;;;;;;;3.28;2.98;;;;;;;22.56;52.59;99735.00;153945;1101;103192;-76
2021/08/19 11:55:37;;;;;;;3.60;2.87;;;;;;;22.57;52.47;99747.52;153933;1101;103310;-75
2021/08/19 11:58:41;;;;;;;5.43;3.40;;;;;;;22.63;51.92;99742.99;153994;1101;103231;-75
2021/08/19 12:01:49;;;;;;;4.57;3.43;;;;;;;22.65;52.04;99746.29;153981;1101;103121;-75
2021/08/19 12:05:03;;;;;;;3.43;3.13;;;;;;;22.65;52.03;99752.58;153992;1093;103096;-76
2021/08/19 12:08:06;;;;;;;3.47;3.17;;;;;;;22.60;51.63;99749.75;154030;1101;103124;-75
2021/08/19 12:11:09;;;;;;;3.80;3.40;;;;;;;22.49;51.89;99756.08;153932;1101;103262;-76
2021/08/19 12:14:14;;;;;;;4.17;3.30;;;;;;;22.35;51.75;99753.65;154024;1093;103190;-76
2021/08/19 12:17:17;;;;;;;3.33;2.90;;;;;;;22.24;52.14;99756.39;154042;1101;103128;-76
2021/08/19 12:20:20;;;;;;;3.40;3.10;;;;;;;22.15;52.04;99753.21;153925;1101;103183;-76
2021/08/19 12:23:27;;;;;;;3.78;2.98;;;;;;;22.11;52.18;99762.92;154000;1101;103144;-76
2021/08/19 12:26:29;;;;;;;3.98;3.15;;;;;;;22.11;52.33;99752.90;153958;1101;103259;-76
2021/08/19 12:29:34;;;;;;;3.90;3.50;;;;;;;22.11;52.33;99761.05;153978;1101;103208;-77
2021/08/19 12:32:38;;;;;;;3.60;3.30;;;;;;;22.11;52.50;99765.64;153982;1093;103245;-77
2021/08/19 12:35:40;;;;;;;4.30;3.25;;;;;;;22.06;52.49;99760.13;153950;1093;103176;-76
2021/08/19 12:38:45;;;;;;;3.53;3.13;;;;;;;21.98;52.56;99755.89;153981;1101;103133;-77
2021/08/19 12:41:50;;;;;;;3.75;3.03;;;;;;;21.93;52.76;99762.02;153967;1101;103281;-76
2021/08/19 12:45:06;;;;;;;3.40;3.10;;;;;;;21.91;52.45;99764.16;154024;1101;103128;-76
2021/08/19 12:48:10;;;;;;;4.13;3.40;;;;;;;21.91;51.88;99764.16;153980;1101;103198;-75
2021/08/19 12:51:23;;;;;;;3.25;2.95;;;;;;;21.94;52.07;99765.55;153973;1101;103131;-75
2021/08/19 12:54:26;;;;;;;3.40;3.08;;;;;;;22.06;52.20;99771.80;153985;1101;103131;-77
2021/08/19 12:57:30;;;;;;;4.30;3.37;;;;;;;22.22;52.04;99767.49;153976;1101;103215;-76
2021/08/19 13:00:36;;;;;;;3.43;3.13;;;;;;;22.34;52.36;99765.61;154059;1100;103278;-76
2021/08/19 13:03:39;;;;;;;4.20;3.33;;;;;;;22.46;51.38;99764.70;153960;1100;103094;-76
2021/08/19 13:06:41;;;;;;;3.90;3.50;;;;;;;22.54;51.72;99751.55;153925;1100;103190;-76
2021/08/19 13:09:44;;;;;;;4.20;3.80;;;;;;;22.63;51.79;99760.13;153987;1100;103125;-76
2021/08/19 13:12:47;;;;;;;4.50;3.88;;;;;;;22.68;52.07;99757.50;153976;1101;103275;-76
2021/08/19 13:15:50;;;;;;;6.87;6.17;;;;;;;22.62;51.69;99765.83;154225;1099;103492;-76
2021/08/19 13:18:53;;;;;;;6.07;5.47;;;;;;;22.44;51.34;99767.69;154302;1098;103191;-76
2021/08/19 13:21:56;;;;;;;6.40;5.75;;;;;;;22.29;51.62;99770.94;153967;1093;103474;-76
2021/08/19 13:24:58;;;;;;;5.03;4.00;;;;;;;22.13;51.63;99775.22;154017;1093;103189;-76
2021/08/19 13:28:01;;;;;;;4.00;3.60;;;;;;;21.93;51.45;99767.45;154026;1101;103585;-76
2021/08/19 13:31:04;;;;;;;3.15;2.85;;;;;;;21.66;51.84;99778.02;153975;1093;103275;-76
2021/08/19 13:34:07;;;;;;;4.13;2.90;;;;;;;21.49;52.12;99788.77;154007;1101;103119;-75
2021/08/19 13:37:10;;;;;;;3.43;3.13;;;;;;;21.35;52.21;99787.33;154068;1099;103196;-76
2021/08/19 13:40:13;;;;;;;5.70;3.40;;;;;;;21.26;52.14;99789.55;154101;1093;103188;-76
2021/08/19 13:43:16;;;;;;;4.87;3.53;;;;;;;21.20;52.45;99793.20;153962;1101;103191;-76
2021/08/19 13:46:18;;;;;;;4.47;3.43;;;;;;;21.13;52.32;99790.62;153954;1101;103246;-76
2021/08/19 13:49:21;;;;;;;4.47;3.03;;;;;;;21.10;52.55;99782.94;153959;1101;103129;-76
2021/08/19 13:52:24;;;;;;;3.60;3.05;;;;;;;21.08;52.40;99782.34;153950;1101;103195;-76
2021/08/19 13:55:27;;;;;;;4.40;2.90;;;;;;;21.08;52.71;99776.92;153946;1093;103110;-76
2021/08/19 13:58:30;;;;;;;3.17;2.80;;;;;;;21.08;52.29;99781.52;154067;1093;103233;-76
2021/08/19 14:01:33;;;;;;;4.17;3.77;;;;;;;21.08;52.73;99776.09;153999;1101;103118;-76
2021/08/19 14:04:35;;;;;;;3.87;3.47;;;;;;;21.10;52.70;99777.51;153923;1101;103383;-76